Terminal Aerodrome Forecast
Issued by NWS

Home | Current Version | Previous Version | Text Only | Print | Product List | Glossary On
Versions: 1 2 3 4 5 6 7 8 9 10 11 12 13 14 15 16 17 18
000
FTUS44 KEWX 261723
TAFSSF
TAF
KSSF 261723Z 2618/2718 11005KT P6SM SCT050
     FM270900 VRB04KT P6SM FEW025
     FM271700 16006KT P6SM FEW050=

USA.gov is the U.S. government's official web portal to all federal, state and local government web resources and services.